createdAt,value
2022-11-29T00:01:59.666Z,97760.56
2022-11-29T00:04:29.861Z,97752.72
2022-11-29T00:06:59.131Z,97761.22
2022-11-29T00:09:28.385Z,97757.00
2022-11-29T00:12:15.270Z,97757.22
2022-11-29T00:14:45.623Z,97759.88
2022-11-29T00:17:16.491Z,97757.75
2022-11-29T00:19:47.155Z,97761.59
2022-11-29T00:22:16.830Z,97757.31
2022-11-29T00:24:47.616Z,97761.78
2022-11-29T00:27:18.680Z,97754.59
2022-11-29T00:29:48.329Z,97759.66
2022-11-29T00:32:18.376Z,97755.97
2022-11-29T00:34:48.360Z,97753.72
2022-11-29T00:37:18.364Z,97759.81
2022-11-29T00:39:48.000Z,97752.56
2022-11-29T00:42:19.041Z,97755.34
2022-11-29T00:44:48.965Z,97744.44
2022-11-29T00:47:18.570Z,97753.75
2022-11-29T00:49:48.202Z,97755.59
2022-11-29T00:52:18.036Z,97755.16
2022-11-29T00:54:47.951Z,97756.84
2022-11-29T00:57:19.044Z,97760.00
2022-11-29T00:59:48.750Z,97759.38
2022-11-29T01:02:18.740Z,97757.44
2022-11-29T01:04:48.915Z,97750.38
2022-11-29T01:07:19.045Z,97754.63
2022-11-29T01:09:48.830Z,97762.75
2022-11-29T01:12:20.430Z,97752.16
2022-11-29T01:14:50.375Z,97754.47
2022-11-29T01:17:21.145Z,97762.53
2022-11-29T01:19:51.247Z,97755.16
2022-11-29T01:22:21.214Z,97753.13
2022-11-29T01:24:51.011Z,97753.66
2022-11-29T01:27:25.277Z,97754.53
2022-11-29T01:29:55.005Z,97753.81
2022-11-29T01:32:24.831Z,97752.81
2022-11-29T01:34:54.540Z,97756.88
2022-11-29T01:37:23.756Z,97753.88
2022-11-29T01:39:53.110Z,97743.53
2022-11-29T01:42:24.155Z,97748.84
2022-11-29T01:45:08.040Z,97749.22
2022-11-29T01:47:42.727Z,97747.25
2022-11-29T01:50:13.358Z,97747.09
2022-11-29T01:52:43.645Z,97750.13
2022-11-29T01:55:13.705Z,97755.00
2022-11-29T01:57:46.209Z,97746.53
2022-11-29T02:00:19.168Z,97750.53
2022-11-29T02:02:53.845Z,97753.00
2022-11-29T02:05:23.955Z,97756.69
2022-11-29T02:07:55.344Z,97756.41
2022-11-29T02:10:31.778Z,97751.91
2022-11-29T02:13:10.453Z,97757.47
2022-11-29T02:15:47.644Z,97755.09
2022-11-29T02:18:21.721Z,97747.66
2022-11-29T02:21:20.080Z,97744.97
2022-11-29T02:24:31.581Z,97745.03
2022-11-29T02:27:24.350Z,97745.28
2022-11-29T02:30:20.607Z,97741.97
2022-11-29T02:33:29.593Z,97745.16
2022-11-29T02:36:19.256Z,97750.22
2022-11-29T02:39:09.835Z,97749.72
2022-11-29T02:41:53.715Z,97751.13
2022-11-29T02:44:55.470Z,97754.69
2022-11-29T02:47:33.517Z,97757.78
2022-11-29T02:50:20.341Z,97755.50
2022-11-29T02:52:58.710Z,97754.06
2022-11-29T02:55:35.994Z,97756.38
2022-11-29T02:58:15.775Z,97762.81
2022-11-29T03:00:52.970Z,97754.94
2022-11-29T03:03:26.896Z,97756.00
2022-11-29T03:06:05.018Z,97756.22
2022-11-29T03:08:39.404Z,97758.47
2022-11-29T03:11:19.286Z,97756.25
2022-11-29T03:14:05.452Z,97761.28
2022-11-29T03:16:43.551Z,97756.84
2022-11-29T03:19:33.010Z,97764.72
2022-11-29T03:22:12.929Z,97762.72
2022-11-29T03:24:50.280Z,97770.38
2022-11-29T03:27:23.295Z,97760.84
2022-11-29T03:29:58.063Z,97758.81
2022-11-29T03:32:32.945Z,97764.91
2022-11-29T03:35:07.611Z,97769.13
2022-11-29T03:37:47.285Z,97780.50
2022-11-29T03:40:21.895Z,97766.53
2022-11-29T03:42:54.615Z,97777.06
2022-11-29T03:45:29.186Z,97779.44
2022-11-29T03:48:03.814Z,97778.94
2022-11-29T03:50:38.264Z,97778.25
2022-11-29T03:53:19.625Z,97783.72
2022-11-29T03:55:54.670Z,97789.50
2022-11-29T03:58:43.531Z,97785.94
2022-11-29T04:01:48.798Z,97801.09
2022-11-29T04:04:49.867Z,97795.81
2022-11-29T04:07:44.407Z,97800.50
2022-11-29T04:10:22.570Z,97793.19
2022-11-29T04:13:15.480Z,97797.66
2022-11-29T04:16:20.779Z,97792.97
2022-11-29T04:19:15.431Z,97793.81
2022-11-29T04:22:24.279Z,97797.72
2022-11-29T04:25:22.259Z,97807.59
2022-11-29T04:28:38.589Z,97806.69
2022-11-29T04:31:16.912Z,97801.06
2022-11-29T04:34:07.965Z,97794.00
2022-11-29T04:37:16.250Z,97797.19
2022-11-29T04:39:59.741Z,97808.69
2022-11-29T04:42:54.147Z,97814.31
2022-11-29T04:45:49.390Z,97817.97
2022-11-29T04:48:37.756Z,97814.59
2022-11-29T04:51:17.250Z,97821.06
2022-11-29T04:53:57.609Z,97820.69
2022-11-29T04:56:34.706Z,97825.81
2022-11-29T04:59:11.945Z,97824.34
2022-11-29T05:01:52.420Z,97821.06
2022-11-29T05:04:25.167Z,97825.75
2022-11-29T05:07:03.505Z,97823.66
2022-11-29T05:09:46.590Z,97816.50
2022-11-29T05:12:21.014Z,97827.44
2022-11-29T05:15:15.423Z,97822.97
2022-11-29T05:17:56.859Z,97837.00
2022-11-29T05:20:40.066Z,97834.09
2022-11-29T05:23:31.265Z,97825.66
2022-11-29T05:26:06.231Z,97818.19
2022-11-29T05:28:43.947Z,97830.69
2022-11-29T05:31:31.279Z,97824.06
2022-11-29T05:34:30.283Z,97829.19
2022-11-29T05:37:08.946Z,97826.97
2022-11-29T05:39:51.124Z,97824.56
2022-11-29T05:42:37.271Z,97834.56
2022-11-29T05:45:11.700Z,97824.13
2022-11-29T05:47:48.529Z,97834.66
2022-11-29T05:50:25.080Z,97833.69
2022-11-29T05:52:59.416Z,97834.72
2022-11-29T05:55:51.485Z,97835.56
2022-11-29T05:58:30.605Z,97835.69
2022-11-29T06:01:06.277Z,97840.88
2022-11-29T06:03:40.766Z,97829.47
2022-11-29T06:06:17.282Z,97835.63
2022-11-29T06:08:52.153Z,97843.19
2022-11-29T06:11:28.160Z,97848.34
2022-11-29T06:14:06.300Z,97846.38
2022-11-29T06:16:52.741Z,97843.00
2022-11-29T06:19:49.640Z,97857.09
2022-11-29T06:22:45.177Z,97851.94
2022-11-29T06:25:27.283Z,97850.31
2022-11-29T06:28:09.674Z,97854.22
2022-11-29T06:30:50.691Z,97852.56
2022-11-29T06:33:24.670Z,97855.59
2022-11-29T06:36:09.449Z,97853.59
2022-11-29T06:38:40.455Z,97844.50
2022-11-29T06:41:16.421Z,97844.75
2022-11-29T06:43:46.271Z,97844.75
2022-11-29T06:46:22.829Z,97855.69
2022-11-29T06:49:02.314Z,97853.84
2022-11-29T06:51:38.054Z,97861.66
2022-11-29T06:54:20.768Z,97863.34
2022-11-29T06:56:59.674Z,97869.78
2022-11-29T06:59:39.605Z,97868.63
2022-11-29T07:02:23.523Z,97873.50
2022-11-29T07:05:03.561Z,97862.38
2022-11-29T07:07:36.380Z,97866.03
2022-11-29T07:10:12.041Z,97864.53
2022-11-29T07:12:45.684Z,97871.28
2022-11-29T07:15:21.045Z,97866.69
2022-11-29T07:18:01.464Z,97871.69
2022-11-29T07:20:35.911Z,97871.97
2022-11-29T07:23:13.961Z,97877.97
2022-11-29T07:25:53.605Z,97883.75
2022-11-29T07:28:32.086Z,97881.03
2022-11-29T07:31:10.441Z,97890.19
2022-11-29T07:33:47.275Z,97893.56
2022-11-29T07:36:23.375Z,97890.91
2022-11-29T07:39:01.132Z,97895.25
2022-11-29T07:41:36.015Z,97897.94
2022-11-29T07:44:12.464Z,97898.00
2022-11-29T07:46:42.444Z,97901.28
2022-11-29T07:49:12.622Z,97894.09
2022-11-29T07:51:42.435Z,97888.84
2022-11-29T07:54:50.777Z,97897.97
2022-11-29T07:57:20.474Z,97908.41
2022-11-29T07:59:50.520Z,97902.00
2022-11-29T08:02:29.040Z,97910.59
2022-11-29T08:04:59.417Z,97912.16
2022-11-29T08:07:29.614Z,97905.41
2022-11-29T08:10:01.590Z,97911.47
2022-11-29T08:12:31.725Z,97905.09
2022-11-29T08:15:01.440Z,97907.34
2022-11-29T08:17:31.240Z,97914.38
2022-11-29T08:20:04.185Z,97909.16
2022-11-29T08:22:34.310Z,97911.50
2022-11-29T08:25:06.428Z,97904.25
2022-11-29T08:27:37.035Z,97911.47
2022-11-29T08:30:07.893Z,97906.06
2022-11-29T08:32:37.645Z,97908.81
2022-11-29T08:35:07.521Z,97915.47
2022-11-29T08:37:37.441Z,97913.06
2022-11-29T08:40:11.412Z,97915.09
2022-11-29T08:42:41.261Z,97911.09
2022-11-29T08:45:12.296Z,97911.91
2022-11-29T08:47:43.300Z,97922.59
2022-11-29T08:50:15.856Z,97922.88
2022-11-29T08:53:03.866Z,97928.13
2022-11-29T08:55:36.936Z,97930.66
2022-11-29T08:58:08.294Z,97927.25
2022-11-29T09:00:38.498Z,97928.78
2022-11-29T09:03:26.452Z,97931.69
2022-11-29T09:05:56.351Z,97930.38
2022-11-29T09:08:26.152Z,97931.38
2022-11-29T09:10:57.220Z,97931.91
2022-11-29T09:13:26.822Z,97935.84
2022-11-29T09:15:57.886Z,97929.56
2022-11-29T09:18:28.886Z,97929.88
2022-11-29T09:21:00.236Z,97927.47
2022-11-29T09:23:30.037Z,97927.63
2022-11-29T09:26:01.591Z,97928.63
2022-11-29T09:28:31.895Z,97929.63
2022-11-29T09:31:07.355Z,97931.09
2022-11-29T09:33:37.811Z,97943.94
2022-11-29T09:36:10.280Z,97933.97
2022-11-29T09:38:40.132Z,97937.75
2022-11-29T09:41:37.940Z,97933.47
2022-11-29T09:44:15.265Z,97936.91
2022-11-29T09:46:58.367Z,97931.06
2022-11-29T09:49:42.437Z,97933.47
2022-11-29T09:52:18.380Z,97920.25
2022-11-29T09:54:55.801Z,97923.16
2022-11-29T09:57:27.970Z,97922.91
2022-11-29T10:00:03.377Z,97917.44
2022-11-29T10:02:38.575Z,97919.06
2022-11-29T10:05:14.945Z,97921.53
2022-11-29T10:07:48.220Z,97917.16
2022-11-29T10:10:22.401Z,97913.59
2022-11-29T10:12:56.942Z,97913.66
2022-11-29T10:15:29.724Z,97910.16
2022-11-29T10:18:03.389Z,97911.66
2022-11-29T10:20:40.523Z,97907.06
2022-11-29T10:23:17.622Z,97890.22
2022-11-29T10:25:50.049Z,97895.16
2022-11-29T10:28:23.460Z,97893.56
2022-11-29T10:30:56.476Z,97899.78
2022-11-29T10:33:28.715Z,97898.66
2022-11-29T10:36:00.310Z,97891.78
2022-11-29T10:38:31.517Z,97896.56
2022-11-29T10:41:05.800Z,97890.69
2022-11-29T10:43:39.474Z,97889.63
2022-11-29T10:46:14.229Z,97901.28
2022-11-29T10:48:44.206Z,97892.03
2022-11-29T10:51:18.710Z,97890.03
2022-11-29T10:53:48.595Z,97891.69
2022-11-29T10:56:24.439Z,97886.34
2022-11-29T10:59:06.375Z,97883.22
2022-11-29T11:01:38.626Z,97897.97
2022-11-29T11:04:11.559Z,97906.38
2022-11-29T11:06:47.899Z,97903.00
2022-11-29T11:09:23.100Z,97892.88
2022-11-29T11:11:54.446Z,97897.00
2022-11-29T11:14:27.993Z,97889.78
2022-11-29T11:16:57.753Z,97887.91
2022-11-29T11:19:32.516Z,97888.78
2022-11-29T11:22:04.215Z,97893.00
2022-11-29T11:24:36.594Z,97895.44
2022-11-29T11:27:06.595Z,97900.41
2022-11-29T11:29:41.074Z,97895.56
2022-11-29T11:32:18.635Z,97898.31
2022-11-29T11:34:54.535Z,97890.28
2022-11-29T11:37:27.321Z,97902.16
2022-11-29T11:39:58.598Z,97904.72
2022-11-29T11:42:39.427Z,97901.41
2022-11-29T11:45:29.161Z,97899.84
2022-11-29T11:48:02.511Z,97907.91
2022-11-29T11:50:35.730Z,97893.56
2022-11-29T11:53:08.525Z,97903.13
2022-11-29T11:55:40.899Z,97902.75
2022-11-29T11:58:19.601Z,97900.06
2022-11-29T12:01:03.919Z,97907.59
2022-11-29T12:03:49.558Z,97909.31
2022-11-29T12:06:29.899Z,97906.25
2022-11-29T12:09:05.441Z,97906.00
2022-11-29T12:11:49.476Z,97912.09
2022-11-29T12:14:27.275Z,97909.78
2022-11-29T12:17:08.293Z,97909.69
2022-11-29T12:19:45.957Z,97909.63
2022-11-29T12:22:19.819Z,97907.91
2022-11-29T12:24:55.830Z,97906.78
2022-11-29T12:27:25.615Z,97902.69
2022-11-29T12:29:55.511Z,97903.34
2022-11-29T12:32:37.623Z,97908.69
2022-11-29T12:35:36.139Z,97901.72
2022-11-29T12:38:14.075Z,97899.84
2022-11-29T12:40:48.766Z,97900.66
2022-11-29T12:43:30.236Z,97902.69
2022-11-29T12:46:05.343Z,97900.53
2022-11-29T12:48:41.411Z,97913.69
2022-11-29T12:51:17.835Z,97907.13
2022-11-29T12:54:01.166Z,97914.59
2022-11-29T12:56:38.680Z,97912.13
2022-11-29T12:59:19.233Z,97913.28
2022-11-29T13:02:07.024Z,97914.94
2022-11-29T13:04:44.632Z,97916.41
2022-11-29T13:07:23.528Z,97908.28
2022-11-29T13:10:17.880Z,97908.25
2022-11-29T13:12:50.806Z,97912.22
2022-11-29T13:15:23.667Z,97909.78
2022-11-29T13:17:58.939Z,97919.44
2022-11-29T13:20:38.576Z,97922.09
2022-11-29T13:23:16.336Z,97912.97
2022-11-29T13:25:50.766Z,97923.81
2022-11-29T13:28:24.632Z,97919.50
2022-11-29T13:30:56.856Z,97924.22
2022-11-29T13:33:32.076Z,97933.13
2022-11-29T13:36:13.805Z,97936.81
2022-11-29T13:38:50.837Z,97941.03
2022-11-29T13:41:28.215Z,97940.84
2022-11-29T13:44:02.467Z,97939.50
2022-11-29T13:46:37.943Z,97944.56
2022-11-29T13:49:07.677Z,97944.63
2022-11-29T13:51:41.315Z,97933.34
2022-11-29T13:54:30.444Z,97940.31
2022-11-29T13:57:10.426Z,97943.00
2022-11-29T13:59:47.487Z,97947.41
2022-11-29T14:02:28.059Z,97943.06
2022-11-29T14:04:57.976Z,97945.88
2022-11-29T14:07:33.381Z,97943.50
2022-11-29T14:10:05.453Z,97948.44
2022-11-29T14:12:41.520Z,97950.69
2022-11-29T14:15:33.846Z,97952.97
2022-11-29T14:18:08.550Z,97961.94
2022-11-29T14:20:54.933Z,97959.97
2022-11-29T14:23:48.816Z,97944.72
2022-11-29T14:26:28.781Z,97948.59
2022-11-29T14:29:01.220Z,97938.16
2022-11-29T14:31:51.966Z,97924.00
2022-11-29T14:34:43.780Z,97928.06
2022-11-29T14:37:31.941Z,97934.09
2022-11-29T14:40:13.652Z,97941.59
2022-11-29T14:43:06.180Z,97940.44
2022-11-29T14:45:37.165Z,97942.97
2022-11-29T14:48:07.186Z,97946.41
2022-11-29T14:50:38.930Z,97949.31
2022-11-29T14:53:26.091Z,97947.97
2022-11-29T14:56:38.971Z,97936.41
2022-11-29T14:59:43.560Z,97938.03
2022-11-29T15:02:28.697Z,97943.53
2022-11-29T15:04:59.712Z,97938.47
2022-11-29T15:07:31.793Z,97946.25
2022-11-29T15:10:04.755Z,97931.56
2022-11-29T15:12:37.716Z,97949.25
2022-11-29T15:15:26.026Z,97948.91
2022-11-29T15:18:01.417Z,97942.28
2022-11-29T15:20:55.092Z,97940.84
2022-11-29T15:23:24.714Z,97933.63
2022-11-29T15:25:56.340Z,97939.00
2022-11-29T15:28:26.864Z,97933.28
2022-11-29T15:31:07.192Z,97937.63
2022-11-29T15:33:40.805Z,97933.66
2022-11-29T15:36:13.897Z,97940.84
2022-11-29T15:38:45.585Z,97933.41
2022-11-29T15:41:23.495Z,97924.47
2022-11-29T15:43:55.882Z,97923.75
2022-11-29T15:46:28.900Z,97926.78
2022-11-29T15:49:17.030Z,97925.41
2022-11-29T15:51:47.551Z,97925.34
2022-11-29T15:54:22.124Z,97919.63
2022-11-29T15:56:53.227Z,97926.19
2022-11-29T15:59:30.709Z,97923.56
2022-11-29T16:02:04.061Z,97923.72
2022-11-29T16:04:33.820Z,97923.13
2022-11-29T16:07:05.751Z,97931.41
2022-11-29T16:09:37.600Z,97940.03
2022-11-29T16:12:11.926Z,97934.88
2022-11-29T16:14:51.776Z,97938.91
2022-11-29T16:17:22.970Z,97943.16
2022-11-29T16:19:52.624Z,97942.16
2022-11-29T16:22:25.065Z,97940.88
2022-11-29T16:25:05.344Z,97941.03
2022-11-29T16:27:36.521Z,97938.38
2022-11-29T16:30:08.869Z,97932.56
2022-11-29T16:32:44.624Z,97939.66
2022-11-29T16:35:16.665Z,97938.53
2022-11-29T16:37:47.365Z,97938.00
2022-11-29T16:40:25.490Z,97936.31
2022-11-29T16:43:23.532Z,97939.34
2022-11-29T16:46:35.376Z,97938.41
2022-11-29T16:49:35.017Z,97945.34
2022-11-29T16:52:22.495Z,97947.91
2022-11-29T16:54:53.239Z,97958.66
2022-11-29T16:57:23.067Z,97953.44
2022-11-29T16:59:53.771Z,97957.84
2022-11-29T17:02:23.661Z,97960.75
2022-11-29T17:04:56.630Z,97959.91
2022-11-29T17:07:30.814Z,97958.69
2022-11-29T17:10:01.139Z,97956.19
2022-11-29T17:12:31.375Z,97968.06
2022-11-29T17:15:01.650Z,97966.41
2022-11-29T17:17:31.666Z,97961.97
2022-11-29T17:20:02.430Z,97965.13
2022-11-29T17:22:32.240Z,97976.13
2022-11-29T17:25:01.924Z,97969.31
2022-11-29T17:27:31.700Z,97973.97
2022-11-29T17:30:01.488Z,97975.41
2022-11-29T17:32:31.505Z,97984.63
2022-11-29T17:35:02.865Z,97991.38
2022-11-29T17:37:32.711Z,97990.34
2022-11-29T17:40:02.321Z,97994.47
2022-11-29T17:42:32.010Z,97991.78
2022-11-29T17:45:01.751Z,97992.28
2022-11-29T17:47:31.736Z,97995.50
2022-11-29T17:50:02.997Z,97988.81
2022-11-29T17:52:32.602Z,97996.13
2022-11-29T17:55:02.397Z,97996.38
2022-11-29T17:57:32.146Z,97997.28
2022-11-29T18:00:04.555Z,97996.75
2022-11-29T18:02:34.211Z,98006.84
2022-11-29T18:05:05.842Z,98003.88
2022-11-29T18:07:56.374Z,98008.88
2022-11-29T18:10:26.430Z,98004.63
2022-11-29T18:12:56.175Z,98004.59
2022-11-29T18:15:25.884Z,98009.22
2022-11-29T18:17:55.431Z,98013.50
2022-11-29T18:20:26.606Z,98010.81
2022-11-29T18:22:56.639Z,98014.22
2022-11-29T18:25:41.625Z,98015.78
2022-11-29T18:28:11.576Z,98021.97
2022-11-29T18:30:41.154Z,98013.13
2022-11-29T18:33:10.853Z,98013.47
2022-11-29T18:35:41.871Z,98014.19
2022-11-29T18:38:16.119Z,98014.69
2022-11-29T18:40:47.226Z,98010.88
2022-11-29T18:43:18.771Z,98013.41
2022-11-29T18:45:48.377Z,98018.97
2022-11-29T18:48:18.065Z,98016.91
2022-11-29T18:50:49.371Z,98014.56
2022-11-29T18:53:18.962Z,98017.78
2022-11-29T18:55:49.046Z,98027.16
2022-11-29T18:58:18.597Z,98018.06
2022-11-29T19:00:48.140Z,98019.28
2022-11-29T19:03:17.680Z,98014.53
2022-11-29T19:05:54.659Z,98011.84
2022-11-29T19:08:25.794Z,98016.31
2022-11-29T19:10:55.569Z,98019.41
2022-11-29T19:13:26.962Z,98023.84
2022-11-29T19:15:57.446Z,98029.91
2022-11-29T19:18:26.851Z,98026.28
2022-11-29T19:21:06.612Z,98040.13
2022-11-29T19:23:38.550Z,98036.28
2022-11-29T19:26:11.706Z,98037.03
2022-11-29T19:28:43.094Z,98030.53
2022-11-29T19:31:13.894Z,98029.31
2022-11-29T19:33:46.347Z,98035.69
2022-11-29T19:36:19.798Z,98028.72
2022-11-29T19:38:53.403Z,98027.97
2022-11-29T19:41:25.567Z,98039.38
2022-11-29T19:43:57.396Z,98038.13
2022-11-29T19:46:28.899Z,98032.31
2022-11-29T19:49:00.970Z,98030.97
2022-11-29T19:51:32.978Z,98037.50
2022-11-29T19:54:05.300Z,98039.41
2022-11-29T19:56:36.002Z,98046.53
2022-11-29T19:59:07.371Z,98039.69
2022-11-29T20:01:41.531Z,98032.06
2022-11-29T20:04:13.329Z,98032.03
2022-11-29T20:06:45.935Z,98030.47
2022-11-29T20:09:17.167Z,98030.41
2022-11-29T20:11:47.902Z,98032.00
2022-11-29T20:14:18.395Z,98039.78
2022-11-29T20:16:48.975Z,98038.31
2022-11-29T20:19:19.825Z,98035.00
2022-11-29T20:21:51.820Z,98036.69
2022-11-29T20:24:21.675Z,98031.53
2022-11-29T20:26:52.124Z,98040.19
2022-11-29T20:29:27.533Z,98037.78
2022-11-29T20:31:57.400Z,98034.19
2022-11-29T20:34:27.678Z,98044.00
2022-11-29T20:37:14.330Z,98034.44
2022-11-29T20:39:50.631Z,98040.59
2022-11-29T20:42:56.699Z,98042.75
2022-11-29T20:45:27.380Z,98042.50
2022-11-29T20:48:00.347Z,98041.72
2022-11-29T20:50:33.970Z,98040.69
2022-11-29T20:53:14.696Z,98038.63
2022-11-29T20:55:47.946Z,98038.09
2022-11-29T20:58:19.636Z,98037.19
2022-11-29T21:00:49.511Z,98037.69
2022-11-29T21:03:20.117Z,98037.91
2022-11-29T21:05:51.428Z,98033.72
2022-11-29T21:08:24.060Z,98024.19
2022-11-29T21:10:55.399Z,98031.91
2022-11-29T21:13:25.965Z,98029.38
2022-11-29T21:15:56.289Z,98032.13
2022-11-29T21:18:27.910Z,98033.94
2022-11-29T21:21:10.440Z,98033.03
2022-11-29T21:24:10.685Z,98028.41
2022-11-29T21:26:43.289Z,98032.84
2022-11-29T21:29:18.657Z,98034.50
2022-11-29T21:31:50.859Z,98040.44
2022-11-29T21:34:20.848Z,98035.38
2022-11-29T21:36:54.817Z,98034.44
2022-11-29T21:39:32.311Z,98040.06
2022-11-29T21:42:02.016Z,98039.94
2022-11-29T21:44:32.533Z,98042.97
2022-11-29T21:47:02.140Z,98040.84
2022-11-29T21:49:31.825Z,98037.88
2022-11-29T21:52:01.941Z,98041.91
2022-11-29T21:54:33.334Z,98052.91
2022-11-29T21:57:03.891Z,98039.88
2022-11-29T21:59:33.906Z,98045.56
2022-11-29T22:02:04.211Z,98042.28
2022-11-29T22:04:34.171Z,98036.88
2022-11-29T22:07:03.912Z,98040.06
2022-11-29T22:09:35.396Z,98035.31
2022-11-29T22:12:25.800Z,98045.66
2022-11-29T22:14:55.775Z,98037.09
2022-11-29T22:17:25.645Z,98038.72
2022-11-29T22:19:55.640Z,98032.34
2022-11-29T22:22:28.050Z,98029.28
2022-11-29T22:24:59.962Z,98030.13
2022-11-29T22:27:29.876Z,98033.53
2022-11-29T22:29:59.988Z,98028.41
2022-11-29T22:32:29.650Z,98034.94
2022-11-29T22:34:59.906Z,98035.31
2022-11-29T22:37:31.526Z,98025.91
2022-11-29T22:40:03.966Z,98032.50
2022-11-29T22:42:33.965Z,98028.75
2022-11-29T22:45:04.946Z,98026.41
2022-11-29T22:47:34.561Z,98022.41
2022-11-29T22:50:04.171Z,98027.91
2022-11-29T22:52:33.593Z,98031.44
2022-11-29T22:55:05.202Z,98034.19
2022-11-29T22:57:35.565Z,98030.13
2022-11-29T23:00:09.451Z,98033.44
2022-11-29T23:02:39.206Z,98029.19
2022-11-29T23:05:09.058Z,98026.31
2022-11-29T23:07:39.186Z,98023.63
2022-11-29T23:10:14.900Z,98033.38
2022-11-29T23:12:44.731Z,98032.66
2022-11-29T23:15:14.675Z,98031.66
2022-11-29T23:17:44.856Z,98039.28
2022-11-29T23:20:15.035Z,98027.03
2022-11-29T23:22:44.736Z,98026.75
2022-11-29T23:25:15.815Z,98022.69
2022-11-29T23:27:47.634Z,98021.97
2022-11-29T23:30:17.976Z,98019.19
2022-11-29T23:32:47.995Z,98023.84
2022-11-29T23:35:17.795Z,98020.31
2022-11-29T23:37:47.501Z,98018.88
2022-11-29T23:40:19.132Z,98014.44
2022-11-29T23:42:53.072Z,98019.66
2022-11-29T23:45:22.825Z,98026.28
2022-11-29T23:47:52.425Z,98028.63
2022-11-29T23:50:21.966Z,98020.31
2022-11-29T23:52:55.260Z,98028.44
2022-11-29T23:55:27.200Z,98023.06
2022-11-29T23:57:57.420Z,98025.44
